sensor_id;sensor_type;location;lat;lon;timestamp;P1;durP1;ratioP1;P2;durP2;ratioP2
48871;SDS011;36154;51.674;7.824;2023-04-25T00:00:58;1.33;;;0.57;;
48871;SDS011;36154;51.674;7.824;2023-04-25T00:03:23;2.17;;;0.40;;
48871;SDS011;36154;51.674;7.824;2023-04-25T00:05:50;0.90;;;0.40;;
48871;SDS011;36154;51.674;7.824;2023-04-25T00:08:16;0.30;;;0.30;;
48871;SDS011;36154;51.674;7.824;2023-04-25T00:10:42;1.02;;;0.30;;
48871;SDS011;36154;51.674;7.824;2023-04-25T00:13:07;0.90;;;0.38;;
48871;SDS011;36154;51.674;7.824;2023-04-25T00:15:33;0.38;;;0.38;;
48871;SDS011;36154;51.674;7.824;2023-04-25T00:17:59;0.38;;;0.30;;
48871;SDS011;36154;51.674;7.824;2023-04-25T00:20:24;0.50;;;0.43;;
48871;SDS011;36154;51.674;7.824;2023-04-25T00:22:50;1.00;;;0.52;;
48871;SDS011;36154;51.674;7.824;2023-04-25T00:25:18;0.50;;;0.50;;
48871;SDS011;36154;51.674;7.824;2023-04-25T00:27:43;0.80;;;0.40;;
48871;SDS011;36154;51.674;7.824;2023-04-25T00:30:09;0.73;;;0.40;;
48871;SDS011;36154;51.674;7.824;2023-04-25T00:32:35;0.30;;;0.30;;
48871;SDS011;36154;51.674;7.824;2023-04-25T00:35:01;0.30;;;0.30;;
48871;SDS011;36154;51.674;7.824;2023-04-25T00:37:26;0.30;;;0.30;;
48871;SDS011;36154;51.674;7.824;2023-04-25T00:39:52;0.55;;;0.40;;
48871;SDS011;36154;51.674;7.824;2023-04-25T00:42:19;0.30;;;0.30;;
48871;SDS011;36154;51.674;7.824;2023-04-25T00:44:45;0.47;;;0.40;;
48871;SDS011;36154;51.674;7.824;2023-04-25T00:47:11;0.47;;;0.47;;
48871;SDS011;36154;51.674;7.824;2023-04-25T00:49:37;0.43;;;0.43;;
48871;SDS011;36154;51.674;7.824;2023-04-25T00:52:02;0.38;;;0.35;;
48871;SDS011;36154;51.674;7.824;2023-04-25T00:54:28;0.60;;;0.43;;
48871;SDS011;36154;51.674;7.824;2023-04-25T00:56:53;0.40;;;0.40;;
48871;SDS011;36154;51.674;7.824;2023-04-25T00:59:19;0.30;;;0.30;;
48871;SDS011;36154;51.674;7.824;2023-04-25T01:01:45;0.60;;;0.40;;
48871;SDS011;36154;51.674;7.824;2023-04-25T01:04:10;0.52;;;0.40;;
48871;SDS011;36154;51.674;7.824;2023-04-25T01:06:36;0.70;;;0.60;;
48871;SDS011;36154;51.674;7.824;2023-04-25T01:09:01;0.35;;;0.35;;
48871;SDS011;36154;51.674;7.824;2023-04-25T01:11:27;0.43;;;0.40;;
48871;SDS011;36154;51.674;7.824;2023-04-25T01:13:52;0.55;;;0.50;;
48871;SDS011;36154;51.674;7.824;2023-04-25T01:16:18;0.32;;;0.32;;
48871;SDS011;36154;51.674;7.824;2023-04-25T01:18:43;0.40;;;0.40;;
48871;SDS011;36154;51.674;7.824;2023-04-25T01:21:10;0.30;;;0.30;;
48871;SDS011;36154;51.674;7.824;2023-04-25T01:23:38;0.32;;;0.32;;
48871;SDS011;36154;51.674;7.824;2023-04-25T01:26:05;0.60;;;0.40;;
48871;SDS011;36154;51.674;7.824;2023-04-25T01:28:33;0.50;;;0.40;;
48871;SDS011;36154;51.674;7.824;2023-04-25T01:30:59;0.40;;;0.40;;
48871;SDS011;36154;51.674;7.824;2023-04-25T01:33:24;0.32;;;0.32;;
48871;SDS011;36154;51.674;7.824;2023-04-25T01:35:50;0.65;;;0.30;;
48871;SDS011;36154;51.674;7.824;2023-04-25T01:38:16;0.40;;;0.40;;
48871;SDS011;36154;51.674;7.824;2023-04-25T01:40:42;0.50;;;0.50;;
48871;SDS011;36154;51.674;7.824;2023-04-25T01:43:10;0.55;;;0.50;;
48871;SDS011;36154;51.674;7.824;2023-04-25T01:45:37;0.43;;;0.30;;
48871;SDS011;36154;51.674;7.824;2023-04-25T01:48:06;0.32;;;0.32;;
48871;SDS011;36154;51.674;7.824;2023-04-25T01:50:32;0.47;;;0.47;;
48871;SDS011;36154;51.674;7.824;2023-04-25T01:52:57;0.40;;;0.40;;
48871;SDS011;36154;51.674;7.824;2023-04-25T01:55:23;0.75;;;0.30;;
48871;SDS011;36154;51.674;7.824;2023-04-25T01:57:48;0.55;;;0.40;;
48871;SDS011;36154;51.674;7.824;2023-04-25T02:00:13;0.60;;;0.40;;
48871;SDS011;36154;51.674;7.824;2023-04-25T02:02:39;0.40;;;0.40;;
48871;SDS011;36154;51.674;7.824;2023-04-25T02:05:05;0.43;;;0.40;;
48871;SDS011;36154;51.674;7.824;2023-04-25T02:07:31;0.30;;;0.30;;
48871;SDS011;36154;51.674;7.824;2023-04-25T02:09:57;0.40;;;0.40;;
48871;SDS011;36154;51.674;7.824;2023-04-25T02:12:22;0.28;;;0.28;;
48871;SDS011;36154;51.674;7.824;2023-04-25T02:14:47;0.35;;;0.35;;
48871;SDS011;36154;51.674;7.824;2023-04-25T02:17:12;0.30;;;0.30;;
48871;SDS011;36154;51.674;7.824;2023-04-25T02:19:38;0.55;;;0.40;;
48871;SDS011;36154;51.674;7.824;2023-04-25T02:22:03;0.40;;;0.40;;
48871;SDS011;36154;51.674;7.824;2023-04-25T02:24:29;0.30;;;0.30;;
48871;SDS011;36154;51.674;7.824;2023-04-25T02:26:58;0.40;;;0.40;;
48871;SDS011;36154;51.674;7.824;2023-04-25T02:29:23;0.40;;;0.40;;
48871;SDS011;36154;51.674;7.824;2023-04-25T02:31:49;0.40;;;0.30;;
48871;SDS011;36154;51.674;7.824;2023-04-25T02:34:14;1.45;;;0.50;;
48871;SDS011;36154;51.674;7.824;2023-04-25T02:36:40;0.38;;;0.38;;
48871;SDS011;36154;51.674;7.824;2023-04-25T02:39:05;0.30;;;0.30;;
48871;SDS011;36154;51.674;7.824;2023-04-25T02:41:31;0.57;;;0.40;;
48871;SDS011;36154;51.674;7.824;2023-04-25T02:43:56;1.40;;;0.32;;
48871;SDS011;36154;51.674;7.824;2023-04-25T02:46:22;0.30;;;0.30;;
48871;SDS011;36154;51.674;7.824;2023-04-25T02:48:47;0.47;;;0.47;;
48871;SDS011;36154;51.674;7.824;2023-04-25T02:51:12;0.65;;;0.28;;
48871;SDS011;36154;51.674;7.824;2023-04-25T02:53:38;0.95;;;0.40;;
48871;SDS011;36154;51.674;7.824;2023-04-25T02:56:04;0.52;;;0.30;;
48871;SDS011;36154;51.674;7.824;2023-04-25T02:58:30;0.38;;;0.30;;
48871;SDS011;36154;51.674;7.824;2023-04-25T03:00:55;0.38;;;0.30;;
48871;SDS011;36154;51.674;7.824;2023-04-25T03:03:20;0.45;;;0.22;;
48871;SDS011;36154;51.674;7.824;2023-04-25T03:05:49;0.50;;;0.30;;
48871;SDS011;36154;51.674;7.824;2023-04-25T03:08:15;0.30;;;0.30;;
48871;SDS011;36154;51.674;7.824;2023-04-25T03:10:41;0.30;;;0.30;;
48871;SDS011;36154;51.674;7.824;2023-04-25T03:13:06;0.40;;;0.40;;
48871;SDS011;36154;51.674;7.824;2023-04-25T03:15:31;0.45;;;0.30;;
48871;SDS011;36154;51.674;7.824;2023-04-25T03:17:57;0.40;;;0.40;;
48871;SDS011;36154;51.674;7.824;2023-04-25T03:20:22;0.70;;;0.50;;
48871;SDS011;36154;51.674;7.824;2023-04-25T03:22:47;0.40;;;0.40;;
48871;SDS011;36154;51.674;7.824;2023-04-25T03:25:13;0.30;;;0.22;;
48871;SDS011;36154;51.674;7.824;2023-04-25T03:27:38;0.30;;;0.30;;
48871;SDS011;36154;51.674;7.824;2023-04-25T03:30:03;0.57;;;0.30;;
48871;SDS011;36154;51.674;7.824;2023-04-25T03:32:29;0.30;;;0.30;;
48871;SDS011;36154;51.674;7.824;2023-04-25T03:34:54;0.40;;;0.40;;
48871;SDS011;36154;51.674;7.824;2023-04-25T03:37:20;0.30;;;0.30;;
48871;SDS011;36154;51.674;7.824;2023-04-25T03:39:45;0.30;;;0.30;;
48871;SDS011;36154;51.674;7.824;2023-04-25T03:42:11;0.40;;;0.40;;
48871;SDS011;36154;51.674;7.824;2023-04-25T03:44:36;0.35;;;0.30;;
48871;SDS011;36154;51.674;7.824;2023-04-25T03:47:01;1.67;;;0.47;;
48871;SDS011;36154;51.674;7.824;2023-04-25T03:49:26;0.40;;;0.40;;
48871;SDS011;36154;51.674;7.824;2023-04-25T03:51:52;0.60;;;0.47;;
48871;SDS011;36154;51.674;7.824;2023-04-25T03:54:17;0.40;;;0.40;;
48871;SDS011;36154;51.674;7.824;2023-04-25T03:56:42;0.88;;;0.52;;
48871;SDS011;36154;51.674;7.824;2023-04-25T03:59:07;1.13;;;0.63;;
48871;SDS011;36154;51.674;7.824;2023-04-25T04:01:33;0.65;;;0.50;;
48871;SDS011;36154;51.674;7.824;2023-04-25T04:03:58;0.52;;;0.30;;
48871;SDS011;36154;51.674;7.824;2023-04-25T04:06:23;0.40;;;0.30;;
48871;SDS011;36154;51.674;7.824;2023-04-25T04:08:49;0.60;;;0.35;;
48871;SDS011;36154;51.674;7.824;2023-04-25T04:11:14;0.30;;;0.30;;
48871;SDS011;36154;51.674;7.824;2023-04-25T04:13:39;0.35;;;0.35;;
48871;SDS011;36154;51.674;7.824;2023-04-25T04:16:05;0.32;;;0.30;;
48871;SDS011;36154;51.674;7.824;2023-04-25T04:18:30;0.57;;;0.30;;
48871;SDS011;36154;51.674;7.824;2023-04-25T04:20:56;0.75;;;0.40;;
48871;SDS011;36154;51.674;7.824;2023-04-25T04:23:23;0.50;;;0.50;;
48871;SDS011;36154;51.674;7.824;2023-04-25T04:25:48;1.48;;;0.40;;
48871;SDS011;36154;51.674;7.824;2023-04-25T04:28:13;1.00;;;0.30;;
48871;SDS011;36154;51.674;7.824;2023-04-25T04:30:39;1.25;;;0.30;;
48871;SDS011;36154;51.674;7.824;2023-04-25T04:33:06;0.50;;;0.40;;
48871;SDS011;36154;51.674;7.824;2023-04-25T04:35:32;0.40;;;0.30;;
48871;SDS011;36154;51.674;7.824;2023-04-25T04:37:57;1.30;;;0.40;;
48871;SDS011;36154;51.674;7.824;2023-04-25T04:40:22;0.50;;;0.50;;
48871;SDS011;36154;51.674;7.824;2023-04-25T04:42:48;1.23;;;0.47;;
48871;SDS011;36154;51.674;7.824;2023-04-25T04:45:14;0.55;;;0.40;;
48871;SDS011;36154;51.674;7.824;2023-04-25T04:47:40;2.58;;;0.75;;
48871;SDS011;36154;51.674;7.824;2023-04-25T04:50:06;1.63;;;0.60;;
48871;SDS011;36154;51.674;7.824;2023-04-25T04:52:34;0.32;;;0.32;;
48871;SDS011;36154;51.674;7.824;2023-04-25T04:55:03;1.65;;;0.55;;
48871;SDS011;36154;51.674;7.824;2023-04-25T04:57:30;2.53;;;0.52;;
48871;SDS011;36154;51.674;7.824;2023-04-25T04:59:56;2.30;;;0.68;;
48871;SDS011;36154;51.674;7.824;2023-04-25T05:02:21;1.17;;;0.60;;
48871;SDS011;36154;51.674;7.824;2023-04-25T05:04:46;0.95;;;0.50;;
48871;SDS011;36154;51.674;7.824;2023-04-25T05:07:12;0.40;;;0.40;;
48871;SDS011;36154;51.674;7.824;2023-04-25T05:09:37;0.50;;;0.30;;
48871;SDS011;36154;51.674;7.824;2023-04-25T05:12:03;0.75;;;0.40;;
48871;SDS011;36154;51.674;7.824;2023-04-25T05:14:28;0.60;;;0.40;;
48871;SDS011;36154;51.674;7.824;2023-04-25T05:16:53;0.40;;;0.40;;
48871;SDS011;36154;51.674;7.824;2023-04-25T05:19:19;1.40;;;0.40;;
48871;SDS011;36154;51.674;7.824;2023-04-25T05:21:44;0.60;;;0.60;;
48871;SDS011;36154;51.674;7.824;2023-04-25T05:24:10;1.70;;;0.57;;
48871;SDS011;36154;51.674;7.824;2023-04-25T05:26:35;0.50;;;0.40;;
48871;SDS011;36154;51.674;7.824;2023-04-25T05:29:00;0.68;;;0.50;;
48871;SDS011;36154;51.674;7.824;2023-04-25T05:31:25;0.45;;;0.40;;
48871;SDS011;36154;51.674;7.824;2023-04-25T05:33:51;0.82;;;0.40;;
48871;SDS011;36154;51.674;7.824;2023-04-25T05:36:18;0.80;;;0.65;;
48871;SDS011;36154;51.674;7.824;2023-04-25T05:38:43;1.00;;;0.50;;
48871;SDS011;36154;51.674;7.824;2023-04-25T05:41:09;0.32;;;0.32;;
48871;SDS011;36154;51.674;7.824;2023-04-25T05:43:34;1.52;;;0.45;;
48871;SDS011;36154;51.674;7.824;2023-04-25T05:46:00;0.77;;;0.50;;
48871;SDS011;36154;51.674;7.824;2023-04-25T05:48:25;0.45;;;0.38;;
48871;SDS011;36154;51.674;7.824;2023-04-25T05:50:50;1.00;;;0.50;;
48871;SDS011;36154;51.674;7.824;2023-04-25T05:53:16;1.02;;;0.50;;
48871;SDS011;36154;51.674;7.824;2023-04-25T05:55:42;0.43;;;0.40;;
48871;SDS011;36154;51.674;7.824;2023-04-25T05:58:07;1.70;;;0.45;;
48871;SDS011;36154;51.674;7.824;2023-04-25T06:00:33;0.35;;;0.35;;
48871;SDS011;36154;51.674;7.824;2023-04-25T06:02:58;0.63;;;0.30;;
48871;SDS011;36154;51.674;7.824;2023-04-25T06:05:24;0.73;;;0.40;;
48871;SDS011;36154;51.674;7.824;2023-04-25T06:07:49;0.52;;;0.38;;
48871;SDS011;36154;51.674;7.824;2023-04-25T06:10:15;0.65;;;0.47;;
48871;SDS011;36154;51.674;7.824;2023-04-25T06:12:40;0.77;;;0.40;;
48871;SDS011;36154;51.674;7.824;2023-04-25T06:15:06;0.40;;;0.40;;
48871;SDS011;36154;51.674;7.824;2023-04-25T06:17:32;0.47;;;0.40;;
48871;SDS011;36154;51.674;7.824;2023-04-25T06:19:57;0.80;;;0.40;;
48871;SDS011;36154;51.674;7.824;2023-04-25T06:22:23;1.52;;;0.43;;
48871;SDS011;36154;51.674;7.824;2023-04-25T06:24:48;0.93;;;0.47;;
48871;SDS011;36154;51.674;7.824;2023-04-25T06:27:13;1.52;;;0.50;;
48871;SDS011;36154;51.674;7.824;2023-04-25T06:29:38;0.60;;;0.40;;
48871;SDS011;36154;51.674;7.824;2023-04-25T06:32:04;1.85;;;0.40;;
48871;SDS011;36154;51.674;7.824;2023-04-25T06:34:30;1.00;;;0.68;;
48871;SDS011;36154;51.674;7.824;2023-04-25T06:36:55;0.63;;;0.50;;
48871;SDS011;36154;51.674;7.824;2023-04-25T06:39:20;0.85;;;0.50;;
48871;SDS011;36154;51.674;7.824;2023-04-25T06:41:48;1.17;;;0.43;;
48871;SDS011;36154;51.674;7.824;2023-04-25T06:44:13;1.35;;;0.50;;
48871;SDS011;36154;51.674;7.824;2023-04-25T06:46:38;0.70;;;0.43;;
48871;SDS011;36154;51.674;7.824;2023-04-25T06:49:04;0.70;;;0.40;;
48871;SDS011;36154;51.674;7.824;2023-04-25T06:51:29;1.95;;;0.32;;
48871;SDS011;36154;51.674;7.824;2023-04-25T06:53:55;0.77;;;0.50;;
48871;SDS011;36154;51.674;7.824;2023-04-25T06:56:21;0.40;;;0.40;;
48871;SDS011;36154;51.674;7.824;2023-04-25T06:58:46;4.03;;;0.60;;
48871;SDS011;36154;51.674;7.824;2023-04-25T07:01:11;0.60;;;0.45;;
48871;SDS011;36154;51.674;7.824;2023-04-25T07:03:37;1.60;;;0.70;;
48871;SDS011;36154;51.674;7.824;2023-04-25T07:06:03;1.60;;;0.65;;
48871;SDS011;36154;51.674;7.824;2023-04-25T07:08:28;0.85;;;0.68;;
48871;SDS011;36154;51.674;7.824;2023-04-25T07:10:54;0.95;;;0.40;;
48871;SDS011;36154;51.674;7.824;2023-04-25T07:13:19;1.25;;;0.60;;
48871;SDS011;36154;51.674;7.824;2023-04-25T07:15:45;2.88;;;0.75;;
48871;SDS011;36154;51.674;7.824;2023-04-25T07:18:10;0.75;;;0.60;;
48871;SDS011;36154;51.674;7.824;2023-04-25T07:20:36;0.75;;;0.50;;
48871;SDS011;36154;51.674;7.824;2023-04-25T07:23:01;0.98;;;0.50;;
48871;SDS011;36154;51.674;7.824;2023-04-25T07:25:26;3.25;;;0.85;;
48871;SDS011;36154;51.674;7.824;2023-04-25T07:27:52;1.15;;;0.70;;
48871;SDS011;36154;51.674;7.824;2023-04-25T07:30:17;1.20;;;0.80;;
48871;SDS011;36154;51.674;7.824;2023-04-25T07:32:43;1.25;;;0.77;;
48871;SDS011;36154;51.674;7.824;2023-04-25T07:35:08;1.92;;;0.88;;
48871;SDS011;36154;51.674;7.824;2023-04-25T07:37:34;1.10;;;0.70;;
48871;SDS011;36154;51.674;7.824;2023-04-25T07:40:00;1.25;;;0.65;;
48871;SDS011;36154;51.674;7.824;2023-04-25T07:42:26;0.82;;;0.70;;
48871;SDS011;36154;51.674;7.824;2023-04-25T07:44:51;0.82;;;0.60;;
48871;SDS011;36154;51.674;7.824;2023-04-25T07:47:17;0.70;;;0.70;;
48871;SDS011;36154;51.674;7.824;2023-04-25T07:49:44;1.20;;;0.60;;
48871;SDS011;36154;51.674;7.824;2023-04-25T07:52:10;0.90;;;0.80;;
48871;SDS011;36154;51.674;7.824;2023-04-25T07:54:37;0.88;;;0.80;;
48871;SDS011;36154;51.674;7.824;2023-04-25T07:57:03;1.58;;;0.90;;
48871;SDS011;36154;51.674;7.824;2023-04-25T07:59:28;1.00;;;0.65;;
48871;SDS011;36154;51.674;7.824;2023-04-25T08:01:54;1.10;;;0.80;;
48871;SDS011;36154;51.674;7.824;2023-04-25T08:04:19;0.60;;;0.60;;
48871;SDS011;36154;51.674;7.824;2023-04-25T08:06:45;1.90;;;0.70;;
48871;SDS011;36154;51.674;7.824;2023-04-25T08:09:10;1.63;;;1.00;;
48871;SDS011;36154;51.674;7.824;2023-04-25T08:11:36;1.02;;;0.70;;
48871;SDS011;36154;51.674;7.824;2023-04-25T08:14:01;0.95;;;0.65;;
48871;SDS011;36154;51.674;7.824;2023-04-25T08:16:27;2.17;;;0.88;;
48871;SDS011;36154;51.674;7.824;2023-04-25T08:18:52;0.55;;;0.55;;
48871;SDS011;36154;51.674;7.824;2023-04-25T08:21:20;1.58;;;0.80;;
48871;SDS011;36154;51.674;7.824;2023-04-25T08:23:46;1.00;;;0.60;;
48871;SDS011;36154;51.674;7.824;2023-04-25T08:26:11;0.95;;;0.55;;
48871;SDS011;36154;51.674;7.824;2023-04-25T08:28:37;1.45;;;0.60;;
48871;SDS011;36154;51.674;7.824;2023-04-25T08:31:02;1.25;;;0.70;;
48871;SDS011;36154;51.674;7.824;2023-04-25T08:33:27;0.63;;;0.45;;
48871;SDS011;36154;51.674;7.824;2023-04-25T08:35:53;0.80;;;0.68;;
48871;SDS011;36154;51.674;7.824;2023-04-25T08:38:18;1.38;;;0.77;;
48871;SDS011;36154;51.674;7.824;2023-04-25T08:40:44;0.80;;;0.60;;
48871;SDS011;36154;51.674;7.824;2023-04-25T08:43:15;2.72;;;1.08;;
48871;SDS011;36154;51.674;7.824;2023-04-25T08:45:43;0.80;;;0.60;;
48871;SDS011;36154;51.674;7.824;2023-04-25T08:48:13;0.65;;;0.60;;
48871;SDS011;36154;51.674;7.824;2023-04-25T08:50:40;0.55;;;0.43;;
48871;SDS011;36154;51.674;7.824;2023-04-25T08:53:16;1.80;;;0.70;;
48871;SDS011;36154;51.674;7.824;2023-04-25T08:55:44;1.23;;;0.60;;
48871;SDS011;36154;51.674;7.824;2023-04-25T08:58:11;1.05;;;0.80;;
48871;SDS011;36154;51.674;7.824;2023-04-25T09:00:38;1.90;;;0.60;;
48871;SDS011;36154;51.674;7.824;2023-04-25T09:03:03;1.33;;;0.60;;
48871;SDS011;36154;51.674;7.824;2023-04-25T09:05:29;2.15;;;0.50;;
48871;SDS011;36154;51.674;7.824;2023-04-25T09:07:55;1.40;;;0.57;;
48871;SDS011;36154;51.674;7.824;2023-04-25T09:10:21;0.95;;;0.40;;
48871;SDS011;36154;51.674;7.824;2023-04-25T09:13:01;0.75;;;0.60;;
48871;SDS011;36154;51.674;7.824;2023-04-25T09:15:34;1.98;;;0.60;;
48871;SDS011;36154;51.674;7.824;2023-04-25T09:18:12;1.50;;;0.30;;
48871;SDS011;36154;51.674;7.824;2023-04-25T09:20:41;1.23;;;0.40;;
48871;SDS011;36154;51.674;7.824;2023-04-25T09:23:12;1.17;;;0.50;;
48871;SDS011;36154;51.674;7.824;2023-04-25T09:25:37;1.95;;;0.70;;
48871;SDS011;36154;51.674;7.824;2023-04-25T09:28:08;9.30;;;1.55;;
48871;SDS011;36154;51.674;7.824;2023-04-25T09:30:34;13.95;;;2.92;;
48871;SDS011;36154;51.674;7.824;2023-04-25T09:33:07;10.50;;;2.67;;
48871;SDS011;36154;51.674;7.824;2023-04-25T09:35:40;12.23;;;2.28;;
48871;SDS011;36154;51.674;7.824;2023-04-25T09:38:11;7.85;;;2.20;;
48871;SDS011;36154;51.674;7.824;2023-04-25T09:40:45;9.73;;;2.17;;
48871;SDS011;36154;51.674;7.824;2023-04-25T09:43:18;9.05;;;2.15;;
48871;SDS011;36154;51.674;7.824;2023-04-25T09:45:47;5.40;;;1.88;;
48871;SDS011;36154;51.674;7.824;2023-04-25T09:48:21;9.10;;;2.13;;
48871;SDS011;36154;51.674;7.824;2023-04-25T09:53:39;9.73;;;2.10;;
48871;SDS011;36154;51.674;7.824;2023-04-25T09:56:10;12.98;;;2.13;;
48871;SDS011;36154;51.674;7.824;2023-04-25T09:58:37;12.55;;;2.50;;
48871;SDS011;36154;51.674;7.824;2023-04-25T10:01:07;8.75;;;2.80;;
48871;SDS011;36154;51.674;7.824;2023-04-25T10:03:34;14.07;;;3.13;;
48871;SDS011;36154;51.674;7.824;2023-04-25T10:06:02;11.85;;;2.75;;
48871;SDS011;36154;51.674;7.824;2023-04-25T10:08:35;10.82;;;2.67;;
48871;SDS011;36154;51.674;7.824;2023-04-25T10:11:05;11.07;;;2.45;;
48871;SDS011;36154;51.674;7.824;2023-04-25T10:13:32;14.75;;;2.90;;
48871;SDS011;36154;51.674;7.824;2023-04-25T10:19:01;6.50;;;2.08;;
48871;SDS011;36154;51.674;7.824;2023-04-25T10:21:27;11.10;;;2.00;;
48871;SDS011;36154;51.674;7.824;2023-04-25T10:23:56;13.02;;;2.38;;
48871;SDS011;36154;51.674;7.824;2023-04-25T10:26:22;11.27;;;2.00;;
48871;SDS011;36154;51.674;7.824;2023-04-25T10:28:54;7.47;;;1.92;;
48871;SDS011;36154;51.674;7.824;2023-04-25T10:31:24;8.07;;;2.20;;
48871;SDS011;36154;51.674;7.824;2023-04-25T10:33:49;7.22;;;1.60;;
48871;SDS011;36154;51.674;7.824;2023-04-25T10:36:18;4.35;;;1.80;;
48871;SDS011;36154;51.674;7.824;2023-04-25T10:38:47;5.13;;;1.70;;
48871;SDS011;36154;51.674;7.824;2023-04-25T10:41:13;5.25;;;1.65;;
48871;SDS011;36154;51.674;7.824;2023-04-25T10:43:42;7.40;;;1.88;;
48871;SDS011;36154;51.674;7.824;2023-04-25T10:46:19;6.00;;;1.20;;
48871;SDS011;36154;51.674;7.824;2023-04-25T10:51:31;3.53;;;1.70;;
48871;SDS011;36154;51.674;7.824;2023-04-25T10:54:01;6.10;;;1.70;;
48871;SDS011;36154;51.674;7.824;2023-04-25T10:56:32;4.00;;;1.45;;
48871;SDS011;36154;51.674;7.824;2023-04-25T10:59:04;4.10;;;1.20;;
48871;SDS011;36154;51.674;7.824;2023-04-25T11:01:35;4.45;;;1.58;;
48871;SDS011;36154;51.674;7.824;2023-04-25T11:09:27;3.97;;;1.38;;
48871;SDS011;36154;51.674;7.824;2023-04-25T11:11:56;3.22;;;1.48;;
48871;SDS011;36154;51.674;7.824;2023-04-25T11:14:23;9.90;;;1.42;;
48871;SDS011;36154;51.674;7.824;2023-04-25T11:16:58;3.67;;;1.38;;
48871;SDS011;36154;51.674;7.824;2023-04-25T11:19:26;2.22;;;1.05;;
48871;SDS011;36154;51.674;7.824;2023-04-25T11:21:58;3.30;;;1.13;;
48871;SDS011;36154;51.674;7.824;2023-04-25T11:26:53;6.63;;;1.20;;
48871;SDS011;36154;51.674;7.824;2023-04-25T11:29:21;3.90;;;1.10;;
48871;SDS011;36154;51.674;7.824;2023-04-25T11:31:48;4.32;;;1.58;;
48871;SDS011;36154;51.674;7.824;2023-04-25T11:34:17;2.85;;;1.13;;
48871;SDS011;36154;51.674;7.824;2023-04-25T11:36:43;4.80;;;1.20;;
48871;SDS011;36154;51.674;7.824;2023-04-25T11:39:10;2.88;;;1.23;;
48871;SDS011;36154;51.674;7.824;2023-04-25T11:41:36;2.40;;;1.13;;
48871;SDS011;36154;51.674;7.824;2023-04-25T11:44:02;5.38;;;1.17;;
48871;SDS011;36154;51.674;7.824;2023-04-25T11:46:28;2.85;;;1.30;;
48871;SDS011;36154;51.674;7.824;2023-04-25T11:48:53;2.72;;;1.20;;
48871;SDS011;36154;51.674;7.824;2023-04-25T11:51:22;3.50;;;1.10;;
48871;SDS011;36154;51.674;7.824;2023-04-25T11:53:47;2.80;;;1.23;;
48871;SDS011;36154;51.674;7.824;2023-04-25T11:56:12;1.75;;;1.05;;
48871;SDS011;36154;51.674;7.824;2023-04-25T11:58:54;4.53;;;1.30;;
48871;SDS011;36154;51.674;7.824;2023-04-25T12:01:30;6.07;;;1.00;;
48871;SDS011;36154;51.674;7.824;2023-04-25T12:03:57;4.18;;;1.13;;
48871;SDS011;36154;51.674;7.824;2023-04-25T12:06:26;1.85;;;1.02;;
48871;SDS011;36154;51.674;7.824;2023-04-25T12:09:03;2.88;;;1.05;;
48871;SDS011;36154;51.674;7.824;2023-04-25T12:11:32;2.80;;;1.30;;
48871;SDS011;36154;51.674;7.824;2023-04-25T12:14:06;4.18;;;1.25;;
48871;SDS011;36154;51.674;7.824;2023-04-25T12:16:44;3.42;;;1.25;;
48871;SDS011;36154;51.674;7.824;2023-04-25T12:19:14;1.42;;;0.85;;
48871;SDS011;36154;51.674;7.824;2023-04-25T12:21:44;1.50;;;0.88;;
48871;SDS011;36154;51.674;7.824;2023-04-25T12:26:59;0.95;;;0.88;;
48871;SDS011;36154;51.674;7.824;2023-04-25T12:29:27;3.00;;;0.90;;
48871;SDS011;36154;51.674;7.824;2023-04-25T12:31:54;1.38;;;0.70;;
48871;SDS011;36154;51.674;7.824;2023-04-25T12:34:21;3.45;;;1.27;;
48871;SDS011;36154;51.674;7.824;2023-04-25T12:36:47;1.13;;;0.73;;
48871;SDS011;36154;51.674;7.824;2023-04-25T12:41:49;0.98;;;0.88;;
48871;SDS011;36154;51.674;7.824;2023-04-25T12:44:19;0.77;;;0.70;;
48871;SDS011;36154;51.674;7.824;2023-04-25T12:46:45;1.05;;;0.70;;
48871;SDS011;36154;51.674;7.824;2023-04-25T12:49:10;1.13;;;0.85;;
48871;SDS011;36154;51.674;7.824;2023-04-25T12:51:36;1.10;;;0.75;;
48871;SDS011;36154;51.674;7.824;2023-04-25T12:54:02;1.55;;;0.80;;
48871;SDS011;36154;51.674;7.824;2023-04-25T12:56:29;1.70;;;0.77;;
48871;SDS011;36154;51.674;7.824;2023-04-25T12:58:56;1.73;;;0.73;;
48871;SDS011;36154;51.674;7.824;2023-04-25T13:01:22;1.75;;;0.80;;
48871;SDS011;36154;51.674;7.824;2023-04-25T13:03:48;0.77;;;0.65;;
48871;SDS011;36154;51.674;7.824;2023-04-25T13:06:13;1.90;;;0.90;;
48871;SDS011;36154;51.674;7.824;2023-04-25T13:08:39;1.15;;;0.80;;
48871;SDS011;36154;51.674;7.824;2023-04-25T13:11:06;2.53;;;0.68;;
48871;SDS011;36154;51.674;7.824;2023-04-25T13:13:31;2.33;;;0.93;;
48871;SDS011;36154;51.674;7.824;2023-04-25T13:15:57;0.90;;;0.80;;
48871;SDS011;36154;51.674;7.824;2023-04-25T13:18:23;4.13;;;1.20;;
48871;SDS011;36154;51.674;7.824;2023-04-25T13:20:52;9.80;;;0.85;;
48871;SDS011;36154;51.674;7.824;2023-04-25T13:23:18;6.43;;;0.90;;
48871;SDS011;36154;51.674;7.824;2023-04-25T13:25:43;1.48;;;0.80;;
48871;SDS011;36154;51.674;7.824;2023-04-25T13:28:08;3.20;;;0.95;;
48871;SDS011;36154;51.674;7.824;2023-04-25T13:30:34;1.33;;;0.70;;
48871;SDS011;36154;51.674;7.824;2023-04-25T13:32:59;2.50;;;0.80;;
48871;SDS011;36154;51.674;7.824;2023-04-25T13:35:28;1.90;;;0.82;;
48871;SDS011;36154;51.674;7.824;2023-04-25T13:37:54;1.25;;;0.70;;
48871;SDS011;36154;51.674;7.824;2023-04-25T13:40:19;1.45;;;0.80;;
48871;SDS011;36154;51.674;7.824;2023-04-25T13:42:45;2.55;;;1.02;;
48871;SDS011;36154;51.674;7.824;2023-04-25T13:45:10;5.50;;;1.45;;
48871;SDS011;36154;51.674;7.824;2023-04-25T13:47:36;3.42;;;1.23;;
48871;SDS011;36154;51.674;7.824;2023-04-25T13:50:02;6.93;;;1.35;;
48871;SDS011;36154;51.674;7.824;2023-04-25T13:52:28;2.15;;;1.05;;
48871;SDS011;36154;51.674;7.824;2023-04-25T13:54:54;6.10;;;1.10;;
48871;SDS011;36154;51.674;7.824;2023-04-25T13:57:19;5.28;;;1.15;;
48871;SDS011;36154;51.674;7.824;2023-04-25T13:59:44;1.13;;;0.75;;
48871;SDS011;36154;51.674;7.824;2023-04-25T14:02:12;1.45;;;0.70;;
48871;SDS011;36154;51.674;7.824;2023-04-25T14:04:37;3.10;;;1.25;;
48871;SDS011;36154;51.674;7.824;2023-04-25T14:07:03;5.88;;;0.50;;
48871;SDS011;36154;51.674;7.824;2023-04-25T14:09:29;1.75;;;0.70;;
48871;SDS011;36154;51.674;7.824;2023-04-25T14:11:55;3.22;;;0.65;;
48871;SDS011;36154;51.674;7.824;2023-04-25T14:14:21;4.57;;;0.90;;
48871;SDS011;36154;51.674;7.824;2023-04-25T14:16:47;9.38;;;1.08;;
48871;SDS011;36154;51.674;7.824;2023-04-25T14:19:14;2.20;;;0.50;;
48871;SDS011;36154;51.674;7.824;2023-04-25T14:21:39;2.13;;;0.57;;
48871;SDS011;36154;51.674;7.824;2023-04-25T14:24:05;3.30;;;0.70;;
48871;SDS011;36154;51.674;7.824;2023-04-25T14:26:31;2.90;;;1.00;;
48871;SDS011;36154;51.674;7.824;2023-04-25T14:28:58;4.43;;;0.50;;
48871;SDS011;36154;51.674;7.824;2023-04-25T14:31:23;1.70;;;0.85;;
48871;SDS011;36154;51.674;7.824;2023-04-25T14:33:48;1.00;;;0.60;;
48871;SDS011;36154;51.674;7.824;2023-04-25T14:36:14;1.75;;;0.75;;
48871;SDS011;36154;51.674;7.824;2023-04-25T14:38:39;2.33;;;0.45;;
48871;SDS011;36154;51.674;7.824;2023-04-25T14:41:04;2.20;;;0.50;;
48871;SDS011;36154;51.674;7.824;2023-04-25T14:43:30;1.83;;;0.57;;
48871;SDS011;36154;51.674;7.824;2023-04-25T14:45:56;1.27;;;0.65;;
48871;SDS011;36154;51.674;7.824;2023-04-25T14:48:21;1.38;;;0.60;;
48871;SDS011;36154;51.674;7.824;2023-04-25T14:50:46;12.05;;;0.80;;
48871;SDS011;36154;51.674;7.824;2023-04-25T14:53:12;1.27;;;0.63;;
48871;SDS011;36154;51.674;7.824;2023-04-25T14:55:38;1.38;;;0.40;;
48871;SDS011;36154;51.674;7.824;2023-04-25T14:58:03;2.92;;;0.55;;
48871;SDS011;36154;51.674;7.824;2023-04-25T15:00:29;0.40;;;0.40;;
48871;SDS011;36154;51.674;7.824;2023-04-25T15:02:55;0.40;;;0.20;;
48871;SDS011;36154;51.674;7.824;2023-04-25T15:05:21;0.20;;;0.20;;